Welcome to Des Moines Iowa Weather. I am an independent private personal weather station on the Northwest Side of Des Moines, Iowa. Just East of Windsor Heights and just West of Glendale . This site is also mobile friendly.

There are no active watches, warnings or advisories


Visit our other weather sites:

Historical Data

Weather Station Setup



Weather Underground History page Text

Daily Summary for July 20, 2018 Units:  English    Metric   Both
« Previous Day
Next Day »
Daily Weekly Monthly Yearly Custom
  Current: High: Low: Average:
Temperature: 81.4 °F 81.8 °F 66.8 °F 72.6 °F
Dew Point: 65.0 °F 67.0 °F 61.0 °F 63.8 °F
Humidity: 58 % 85 % 58 % 74 %
Wind Speed: 6.0 mph 10.0 mph 0.0 mph 2.1 mph
Wind Gust: 11.0 mph 19.0 mph - -
Wind:NNE - - SW
Pressure: 29.82 in 29.83 in 29.66 in -
Precipitation: 0.00 in      
Historical Graphs
 
 
Tabular Data for July 20, 2018
Time Temperature Dew Point Pressure Wind Wind Speed Wind Gust Humidity Rainfall Rate (Hourly)
00:14 74.3 °F 63.0 °F 29.67 in Calm   7.0 mph 67 % 0.00 in
00:29 73.7 °F 62.0 °F 29.67 in WNW 2.0 mph 15.0 mph 67 % 0.00 in
00:44 73.2 °F 62.0 °F 29.67 in Calm   9.0 mph 69 % 0.00 in
00:59 72.7 °F 62.0 °F 29.66 in Calm   5.0 mph 69 % 0.00 in
01:14 72.2 °F 62.0 °F 29.67 in Calm   4.0 mph 71 % 0.00 in
01:29 71.6 °F 62.0 °F 29.66 in Calm   8.0 mph 72 % 0.00 in
01:44 71.2 °F 62.0 °F 29.66 in Calm   6.0 mph 72 % 0.00 in
01:59 70.9 °F 62.0 °F 29.66 in West 1.0 mph 12.0 mph 73 % 0.00 in
02:14 70.5 °F 62.0 °F 29.66 in South 2.0 mph 11.0 mph 74 % 0.00 in
02:29 70.1 °F 61.0 °F 29.67 in Calm   10.0 mph 74 % 0.00 in
02:44 69.9 °F 62.0 °F 29.67 in NW 3.0 mph 10.0 mph 75 % 0.00 in
02:59 69.7 °F 61.0 °F 29.68 in Calm   8.0 mph 75 % 0.00 in
03:14 69.6 °F 61.0 °F 29.68 in West 2.0 mph 11.0 mph 75 % 0.00 in
03:26 69.3 °F 61.0 °F 29.68 in West 2.0 mph 7.0 mph 76 % 0.00 in
03:29 69.2 °F 61.0 °F 29.68 in West 4.0 mph 13.0 mph 76 % 0.00 in
03:44 69.2 °F 62.0 °F 29.68 in Calm   7.0 mph 77 % 0.00 in
03:56 69.0 °F 62.0 °F 29.69 in NW 2.0 mph 8.0 mph 77 % 0.00 in
04:01 68.9 °F 61.0 °F 29.68 in Calm   13.0 mph 77 % 0.00 in
04:11 68.6 °F 62.0 °F 29.68 in Calm   13.0 mph 78 % 0.00 in
04:15 68.5 °F 61.0 °F 29.69 in Calm   15.0 mph 78 % 0.00 in
04:26 68.2 °F 61.0 °F 29.69 in NW 1.0 mph 10.0 mph 79 % 0.00 in
04:30 68.1 °F 62.0 °F 29.69 in Calm   8.0 mph 80 % 0.00 in
04:42 67.7 °F 62.0 °F 29.70 in NW 2.0 mph 10.0 mph 81 % 0.00 in
04:45 67.7 °F 62.0 °F 29.70 in NW 2.0 mph 10.0 mph 81 % 0.00 in
04:57 67.5 °F 62.0 °F 29.70 in Calm   4.0 mph 82 % 0.00 in
05:00 67.5 °F 62.0 °F 29.70 in Calm   9.0 mph 82 % 0.00 in
05:12 67.3 °F 62.0 °F 29.71 in Calm   4.0 mph 83 % 0.00 in
05:15 67.2 °F 62.0 °F 29.70 in Calm   7.0 mph 83 % 0.00 in
05:27 67.0 °F 62.0 °F 29.71 in Calm   9.0 mph 83 % 0.00 in
05:30 67.0 °F 62.0 °F 29.71 in Calm   8.0 mph 83 % 0.00 in
05:42 66.9 °F 62.0 °F 29.71 in Calm   6.0 mph 84 % 0.00 in
05:45 66.9 °F 62.0 °F 29.71 in Calm   9.0 mph 84 % 0.00 in
05:57 66.8 °F 62.0 °F 29.72 in NNW 1.0 mph 10.0 mph 85 % 0.00 in
06:00 66.8 °F 62.0 °F 29.72 in Calm   9.0 mph 85 % 0.00 in
06:12 66.9 °F 62.0 °F 29.73 in Calm   7.0 mph 85 % 0.00 in
06:15 66.9 °F 62.0 °F 29.73 in Calm   7.0 mph 85 % 0.00 in
06:27 67.0 °F 62.0 °F 29.73 in North 2.0 mph 4.0 mph 85 % 0.00 in
06:30 67.1 °F 63.0 °F 29.73 in Calm   8.0 mph 85 % 0.00 in
06:42 67.2 °F 63.0 °F 29.73 in NE 3.0 mph 9.0 mph 85 % 0.00 in
06:45 67.2 °F 63.0 °F 29.74 in Calm   10.0 mph 85 % 0.00 in
06:57 67.4 °F 63.0 °F 29.74 in Calm   6.0 mph 85 % 0.00 in
07:00 67.4 °F 63.0 °F 29.74 in NNW 3.0 mph 8.0 mph 85 % 0.00 in
07:12 67.6 °F 63.0 °F 29.74 in Calm   8.0 mph 85 % 0.00 in
07:15 67.6 °F 63.0 °F 29.74 in Calm   8.0 mph 85 % 0.00 in
07:27 68.0 °F 63.0 °F 29.75 in Calm   5.0 mph 85 % 0.00 in
07:30 68.1 °F 63.0 °F 29.75 in NNW 1.0 mph 6.0 mph 84 % 0.00 in
07:42 68.5 °F 64.0 °F 29.75 in NW 5.0 mph 9.0 mph 84 % 0.00 in
07:45 68.6 °F 63.0 °F 29.76 in NW 5.0 mph 10.0 mph 83 % 0.00 in
07:57 68.8 °F 64.0 °F 29.77 in Calm   8.0 mph 83 % 0.00 in
08:00 68.9 °F 64.0 °F 29.77 in WSW 2.0 mph 9.0 mph 83 % 0.00 in
08:12 69.1 °F 64.0 °F 29.77 in Calm   11.0 mph 83 % 0.00 in
08:15 69.1 °F 63.0 °F 29.77 in Calm   9.0 mph 82 % 0.00 in
08:27 69.2 °F 64.0 °F 29.78 in NW 3.0 mph 5.0 mph 82 % 0.00 in
08:30 69.2 °F 64.0 °F 29.78 in WSW 9.0 mph 12.0 mph 82 % 0.00 in
08:42 69.4 °F 63.0 °F 29.78 in South 1.0 mph 8.0 mph 81 % 0.00 in
08:45 69.6 °F 64.0 °F 29.78 in Calm   11.0 mph 81 % 0.00 in
08:57 70.1 °F 64.0 °F 29.78 in WSW 1.0 mph 12.0 mph 80 % 0.00 in
09:00 70.2 °F 63.0 °F 29.78 in NNE 3.0 mph 10.0 mph 79 % 0.00 in
09:12 70.3 °F 63.0 °F 29.79 in WSW 2.0 mph 10.0 mph 78 % 0.00 in
09:15 70.4 °F 63.0 °F 29.79 in NNW 5.0 mph 13.0 mph 78 % 0.00 in
09:27 70.6 °F 63.0 °F 29.79 in South 4.0 mph 12.0 mph 77 % 0.00 in
09:30 70.6 °F 63.0 °F 29.79 in Calm   13.0 mph 77 % 0.00 in
09:42 70.7 °F 63.0 °F 29.80 in NNW 1.0 mph 12.0 mph 77 % 0.00 in
09:45 70.7 °F 63.0 °F 29.80 in WNW 3.0 mph 14.0 mph 77 % 0.00 in
09:57 70.8 °F 63.0 °F 29.80 in NNW 8.0 mph 12.0 mph 77 % 0.00 in
10:00 70.8 °F 63.0 °F 29.80 in NNW 3.0 mph 19.0 mph 76 % 0.00 in
10:12 71.1 °F 63.0 °F 29.80 in NE 3.0 mph 15.0 mph 76 % 0.00 in
10:15 71.1 °F 63.0 °F 29.80 in Calm   14.0 mph 76 % 0.00 in
10:27 71.3 °F 63.0 °F 29.80 in Calm   11.0 mph 76 % 0.00 in
10:30 71.3 °F 63.0 °F 29.80 in NW 3.0 mph 14.0 mph 75 % 0.00 in
10:42 71.5 °F 64.0 °F 29.80 in NNW 2.0 mph 16.0 mph 76 % 0.00 in
10:45 71.8 °F 64.0 °F 29.80 in West 3.0 mph 15.0 mph 77 % 0.00 in
10:57 73.4 °F 65.0 °F 29.80 in North 8.0 mph 8.0 mph 75 % 0.00 in
11:00 73.7 °F 65.0 °F 29.80 in Calm   10.0 mph 73 % 0.00 in
11:12 74.4 °F 64.0 °F 29.81 in Calm   12.0 mph 71 % 0.00 in
11:15 74.5 °F 64.0 °F 29.80 in Calm   16.0 mph 70 % 0.00 in
11:27 75.1 °F 64.0 °F 29.81 in SW 5.0 mph 11.0 mph 69 % 0.00 in
11:30 75.1 °F 65.0 °F 29.81 in West 3.0 mph 12.0 mph 70 % 0.00 in
11:43 75.2 °F 64.0 °F 29.81 in WNW 4.0 mph 15.0 mph 69 % 0.00 in
11:46 75.1 °F 64.0 °F 29.81 in Calm   10.0 mph 69 % 0.00 in
11:58 76.1 °F 65.0 °F 29.81 in Calm   12.0 mph 69 % 0.00 in
12:01 76.3 °F 66.0 °F 29.81 in NNW 1.0 mph 15.0 mph 71 % 0.00 in
12:13 76.9 °F 65.0 °F 29.81 in NNE 8.0 mph 11.0 mph 67 % 0.00 in
12:16 76.8 °F 65.0 °F 29.80 in NNW 9.0 mph 12.0 mph 67 % 0.00 in
12:28 76.3 °F 65.0 °F 29.80 in North 5.0 mph 10.0 mph 69 % 0.00 in
12:31 76.3 °F 65.0 °F 29.80 in NE 9.0 mph 12.0 mph 69 % 0.00 in
12:43 76.1 °F 65.0 °F 29.81 in Calm   13.0 mph 68 % 0.00 in
12:46 76.2 °F 65.0 °F 29.81 in Calm   16.0 mph 68 % 0.00 in
12:58 76.8 °F 65.0 °F 29.82 in Calm   12.0 mph 67 % 0.00 in
13:01 77.0 °F 65.0 °F 29.82 in NNE 7.0 mph 17.0 mph 66 % 0.00 in
13:13 77.2 °F 65.0 °F 29.82 in NW 4.0 mph 13.0 mph 67 % 0.00 in
13:16 77.1 °F 65.0 °F 29.82 in WNW 2.0 mph 13.0 mph 67 % 0.00 in
13:28 76.9 °F 65.0 °F 29.82 in Calm   10.0 mph 67 % 0.00 in
13:31 76.9 °F 65.0 °F 29.82 in NNE 3.0 mph 11.0 mph 67 % 0.00 in
13:43 76.8 °F 65.0 °F 29.82 in Calm   12.0 mph 67 % 0.00 in
13:46 76.7 °F 65.0 °F 29.81 in WNW 3.0 mph 14.0 mph 67 % 0.00 in
13:58 76.7 °F 65.0 °F 29.82 in NW 3.0 mph 10.0 mph 68 % 0.00 in
14:01 76.7 °F 65.0 °F 29.81 in North 5.0 mph 11.0 mph 68 % 0.00 in
14:13 76.5 °F 65.0 °F 29.82 in North 5.0 mph 9.0 mph 68 % 0.00 in
14:16 76.6 °F 66.0 °F 29.82 in NE 6.0 mph 12.0 mph 69 % 0.00 in
14:28 77.3 °F 66.0 °F 29.82 in ENE 1.0 mph 7.0 mph 68 % 0.00 in
14:31 77.3 °F 66.0 °F 29.82 in NE 2.0 mph 11.0 mph 68 % 0.00 in
14:43 77.9 °F 66.0 °F 29.82 in NE 3.0 mph 12.0 mph 66 % 0.00 in
14:46 77.7 °F 65.0 °F 29.82 in NNW 5.0 mph 13.0 mph 66 % 0.00 in
14:58 77.4 °F 66.0 °F 29.83 in WNW 2.0 mph 11.0 mph 69 % 0.00 in
15:01 77.5 °F 66.0 °F 29.83 in NNE 10.0 mph 14.0 mph 67 % 0.00 in
15:13 78.0 °F 67.0 °F 29.82 in NNE 4.0 mph 6.0 mph 68 % 0.00 in
15:16 78.0 °F 67.0 °F 29.82 in Calm   9.0 mph 68 % 0.00 in
15:28 77.9 °F 66.0 °F 29.82 in WSW 1.0 mph 11.0 mph 66 % 0.00 in
15:31 78.0 °F 66.0 °F 29.83 in West 4.0 mph 12.0 mph 67 % 0.00 in
15:43 77.9 °F 65.0 °F 29.83 in ENE 4.0 mph 12.0 mph 65 % 0.00 in
15:46 77.8 °F 66.0 °F 29.83 in Calm   17.0 mph 67 % 0.00 in
15:58 78.4 °F 66.0 °F 29.83 in ENE 1.0 mph 11.0 mph 66 % 0.00 in
16:01 78.6 °F 67.0 °F 29.83 in WSW 4.0 mph 14.0 mph 68 % 0.00 in
16:13 79.3 °F 67.0 °F 29.83 in NW 1.0 mph 6.0 mph 66 % 0.00 in
16:16 79.5 °F 67.0 °F 29.83 in NNE 5.0 mph 9.0 mph 66 % 0.00 in
16:28 80.3 °F 67.0 °F 29.83 in West 1.0 mph 6.0 mph 65 % 0.00 in
16:31 80.6 °F 67.0 °F 29.83 in NW 7.0 mph 9.0 mph 63 % 0.00 in
16:43 81.3 °F 66.0 °F 29.82 in NNW 2.0 mph 11.0 mph 61 % 0.00 in
16:47 81.3 °F 66.0 °F 29.82 in WSW 1.0 mph 14.0 mph 61 % 0.00 in
16:58 81.7 °F 67.0 °F 29.82 in Calm   9.0 mph 62 % 0.00 in
17:01 81.8 °F 66.0 °F 29.82 in North 1.0 mph 10.0 mph 60 % 0.00 in
17:13 81.4 °F 65.0 °F 29.82 in NNE 6.0 mph 11.0 mph 58 % 0.00 in
Des Moines Weather and Climate
Compliments of Weather Underground - 3 mb

Script developed by  Jim McMurry - jmcmurry@mwt.net Adapted for the template by  Wim van der Kuil - Leuven-Template.eu

You find our weather info also at:

Weather Underground

Equipment we use:

Weather-station
Davis VP2 Plus

Weather-program
Davis Weatherlink.Com

Weather-server
iMac (Retina 4K, 21.5-inch, Late 2015)

Provider
Hostmonster.com

Davis VP2 Plus

Davis Weatherlink.Com

iMac (Retina 4K, 21.5-inch, Late 2015)

Hostmonster.com